createdAt,value
2023-04-02T00:00:34.883Z,17.45
2023-04-02T00:01:37.757Z,17.45
2023-04-02T00:02:51.454Z,17.43
2023-04-02T00:04:04.405Z,17.45
2023-04-02T00:05:07.935Z,17.46
2023-04-02T00:06:20.741Z,17.45
2023-04-02T00:07:34.388Z,17.42
2023-04-02T00:08:37.344Z,17.43
2023-04-02T00:09:50.891Z,17.45
2023-04-02T00:11:03.696Z,17.43
2023-04-02T00:12:17.398Z,17.43
2023-04-02T00:13:20.241Z,17.42
2023-04-02T00:14:33.924Z,17.43
2023-04-02T00:15:46.684Z,17.43
2023-04-02T00:17:00.390Z,17.41
2023-04-02T00:18:03.247Z,17.43
2023-04-02T00:19:16.910Z,17.42
2023-04-02T00:20:19.855Z,17.43
2023-04-02T00:21:33.441Z,17.43
2023-04-02T00:22:46.206Z,17.43
2023-04-02T00:23:49.938Z,17.42
2023-04-02T00:25:02.761Z,17.43
2023-04-02T00:26:16.408Z,17.43
2023-04-02T00:27:19.235Z,17.43
2023-04-02T00:28:32.902Z,17.42
2023-04-02T00:29:45.661Z,17.41
2023-04-02T00:30:49.431Z,17.42
2023-04-02T00:32:02.249Z,17.41
2023-04-02T00:33:15.957Z,17.41
2023-04-02T00:34:18.871Z,17.41
2023-04-02T00:35:32.545Z,17.41
2023-04-02T00:36:45.465Z,17.41
2023-04-02T00:37:48.923Z,17.38
2023-04-02T00:39:01.720Z,17.39
2023-04-02T00:40:15.415Z,17.39
2023-04-02T00:41:18.239Z,17.41
2023-04-02T00:42:31.938Z,17.39
2023-04-02T00:43:44.734Z,17.41
2023-04-02T00:44:58.434Z,17.39
2023-04-02T00:46:01.263Z,17.38
2023-04-02T00:47:14.919Z,17.38
2023-04-02T00:48:27.802Z,17.39
2023-04-02T00:49:31.390Z,17.36
2023-04-02T00:50:44.185Z,17.39
2023-04-02T00:51:57.932Z,17.38
2023-04-02T00:53:00.774Z,17.38
2023-04-02T00:54:14.513Z,17.36
2023-04-02T00:55:27.315Z,17.38
2023-04-02T00:56:30.927Z,17.36
2023-04-02T00:57:43.787Z,17.36
2023-04-02T00:58:57.411Z,17.36
2023-04-02T01:00:10.303Z,17.36
2023-04-02T01:01:13.949Z,17.36
2023-04-02T01:02:27.076Z,17.36
2023-04-02T01:03:41.026Z,17.35
2023-04-02T01:04:44.048Z,17.36
2023-04-02T01:05:57.928Z,17.35
2023-04-02T01:07:10.818Z,17.32
2023-04-02T01:08:14.434Z,17.35
2023-04-02T01:09:27.306Z,17.35
2023-04-02T01:10:40.908Z,17.32
2023-04-02T01:11:43.878Z,17.36
2023-04-02T01:12:57.400Z,17.34
2023-04-02T01:14:10.279Z,17.34
2023-04-02T01:15:13.942Z,17.35
2023-04-02T01:16:26.898Z,17.36
2023-04-02T01:17:40.970Z,17.32
2023-04-02T01:18:43.879Z,17.35
2023-04-02T01:19:57.413Z,17.35
2023-04-02T01:21:10.303Z,17.35
2023-04-02T01:22:14.912Z,17.32
2023-04-02T01:23:27.722Z,17.34
2023-04-02T01:24:41.428Z,17.35
2023-04-02T01:25:44.270Z,17.32
2023-04-02T01:26:57.981Z,17.34
2023-04-02T01:28:10.865Z,17.34
2023-04-02T01:29:14.457Z,17.29
2023-04-02T01:30:27.244Z,17.31
2023-04-02T01:31:41.012Z,17.32
2023-04-02T01:32:43.997Z,17.32
2023-04-02T01:33:57.455Z,17.29
2023-04-02T01:35:10.253Z,17.34
2023-04-02T01:36:24.448Z,17.34
2023-04-02T01:37:27.307Z,17.32
2023-04-02T01:38:40.946Z,17.31
2023-04-02T01:39:53.741Z,17.32
2023-04-02T01:40:57.410Z,17.32
2023-04-02T01:42:10.207Z,17.32
2023-04-02T01:43:23.946Z,17.28
2023-04-02T01:44:26.792Z,17.29
2023-04-02T01:45:40.440Z,17.31
2023-04-02T01:46:53.267Z,17.28
2023-04-02T01:47:56.953Z,17.31
2023-04-02T01:49:09.746Z,17.31
2023-04-02T01:50:23.434Z,17.29
2023-04-02T01:51:26.282Z,17.28
2023-04-02T01:52:39.926Z,17.29
2023-04-02T01:53:52.733Z,17.27
2023-04-02T01:55:06.411Z,17.27
2023-04-02T01:56:09.273Z,17.25
2023-04-02T01:57:23.008Z,17.31
2023-04-02T01:58:35.986Z,17.28
2023-04-02T01:59:39.409Z,17.28
2023-04-02T02:00:52.231Z,17.27
2023-04-02T02:02:05.984Z,17.27
2023-04-02T02:03:08.972Z,17.28
2023-04-02T02:04:22.935Z,17.27
2023-04-02T02:05:35.989Z,17.27
2023-04-02T02:06:39.918Z,17.27
2023-04-02T02:07:52.713Z,17.25
2023-04-02T02:09:06.447Z,17.25
2023-04-02T02:10:09.276Z,17.25
2023-04-02T02:11:22.953Z,17.27
2023-04-02T02:12:35.661Z,17.25
2023-04-02T02:13:48.953Z,17.25
2023-04-02T02:14:51.596Z,17.27
2023-04-02T02:16:05.011Z,17.27
2023-04-02T02:17:17.984Z,17.27
2023-04-02T02:18:21.443Z,17.24
2023-04-02T02:19:34.271Z,17.24
2023-04-02T02:20:47.924Z,17.24
2023-04-02T02:21:50.771Z,17.25
2023-04-02T02:23:04.425Z,17.25
2023-04-02T02:24:17.222Z,17.25
2023-04-02T02:25:21.001Z,17.25
2023-04-02T02:26:33.913Z,17.24
2023-04-02T02:27:47.457Z,17.22
2023-04-02T02:28:50.323Z,17.25
2023-04-02T02:30:03.924Z,17.24
2023-04-02T02:31:16.714Z,17.22
2023-04-02T02:32:30.564Z,17.21
2023-04-02T02:33:33.458Z,17.24
2023-04-02T02:34:46.940Z,17.22
2023-04-02T02:35:59.737Z,17.24
2023-04-02T02:37:03.435Z,17.24
2023-04-02T02:38:16.251Z,17.22
2023-04-02T02:39:29.959Z,17.21
2023-04-02T02:40:32.791Z,17.22
2023-04-02T02:41:46.458Z,17.22
2023-04-02T02:42:59.226Z,17.21
2023-04-02T02:44:02.936Z,17.22
2023-04-02T02:45:15.927Z,17.2
2023-04-02T02:46:29.594Z,17.22
2023-04-02T02:47:32.628Z,17.22
2023-04-02T02:48:46.474Z,17.22
2023-04-02T02:49:59.280Z,17.21
2023-04-02T02:51:02.914Z,17.21
2023-04-02T02:52:15.774Z,17.22
2023-04-02T02:53:29.446Z,17.2
2023-04-02T02:54:32.289Z,17.22
2023-04-02T02:55:45.965Z,17.21
2023-04-02T02:56:58.782Z,17.21
2023-04-02T02:58:12.453Z,17.21
2023-04-02T02:59:15.275Z,17.21
2023-04-02T03:00:28.952Z,17.22
2023-04-02T03:01:41.805Z,17.21
2023-04-02T03:02:45.507Z,17.21
2023-04-02T03:03:58.543Z,17.2
2023-04-02T03:05:12.474Z,17.22
2023-04-02T03:06:15.305Z,17.21
2023-04-02T03:07:28.925Z,17.21
2023-04-02T03:08:41.712Z,17.22
2023-04-02T03:09:45.449Z,17.21
2023-04-02T03:10:58.196Z,17.21
2023-04-02T03:12:11.943Z,17.2
2023-04-02T03:13:14.797Z,17.2
2023-04-02T03:14:28.454Z,17.18
2023-04-02T03:15:41.243Z,17.2
2023-04-02T03:16:44.953Z,17.2
2023-04-02T03:17:57.788Z,17.2
2023-04-02T03:19:11.457Z,17.2
2023-04-02T03:20:24.249Z,17.18
2023-04-02T03:21:27.939Z,17.2
2023-04-02T03:22:40.708Z,17.17
2023-04-02T03:23:54.466Z,17.2
2023-04-02T03:24:57.304Z,17.2
2023-04-02T03:26:10.932Z,17.18
2023-04-02T03:27:23.707Z,17.18
2023-04-02T03:28:27.460Z,17.18
2023-04-02T03:29:40.330Z,17.17
2023-04-02T03:30:53.971Z,17.18
2023-04-02T03:32:06.535Z,17.18
2023-04-02T03:33:09.958Z,17.15
2023-04-02T03:34:22.721Z,17.18
2023-04-02T03:35:36.688Z,17.17
2023-04-02T03:36:39.830Z,17.2
2023-04-02T03:37:53.502Z,17.18
2023-04-02T03:38:56.321Z,17.15
2023-04-02T03:40:09.958Z,17.17
2023-04-02T03:41:22.796Z,17.17
2023-04-02T03:42:36.449Z,17.17
2023-04-02T03:43:39.296Z,17.18
2023-04-02T03:45:01.957Z,17.18
2023-04-02T03:46:04.785Z,17.15
2023-04-02T03:47:08.454Z,17.15
2023-04-02T03:48:21.228Z,17.17
2023-04-02T03:49:34.948Z,17.18
2023-04-02T03:50:37.768Z,17.15
2023-04-02T03:51:51.450Z,17.15
2023-04-02T03:53:04.190Z,17.17
2023-04-02T03:54:17.963Z,17.15
2023-04-02T03:55:20.775Z,17.17
2023-04-02T03:56:53.976Z,17.15
2023-04-02T03:57:46.964Z,17.14
2023-04-02T03:58:49.777Z,17.15
2023-04-02T04:00:03.500Z,17.18
2023-04-02T04:01:16.270Z,17.17
2023-04-02T04:02:20.025Z,17.18
2023-04-02T04:03:32.951Z,17.18
2023-04-02T04:04:46.464Z,17.15
2023-04-02T04:05:49.293Z,17.15
2023-04-02T04:07:02.989Z,17.17
2023-04-02T04:08:15.774Z,17.15
2023-04-02T04:09:19.437Z,17.15
2023-04-02T04:10:32.179Z,17.14
2023-04-02T04:11:45.954Z,17.15
2023-04-02T04:12:58.736Z,17.17
2023-04-02T04:14:02.455Z,17.14
2023-04-02T04:15:15.220Z,17.15
2023-04-02T04:16:29.013Z,17.14
2023-04-02T04:17:31.988Z,17.14
2023-04-02T04:18:45.464Z,17.12
2023-04-02T04:19:59.255Z,17.11
2023-04-02T04:21:02.968Z,17.14
2023-04-02T04:22:15.746Z,17.12
2023-04-02T04:23:29.458Z,17.11
2023-04-02T04:24:32.256Z,17.12
2023-04-02T04:25:45.965Z,17.11
2023-04-02T04:26:58.735Z,17.1
2023-04-02T04:28:02.485Z,17.11
2023-04-02T04:29:15.263Z,17.11
2023-04-02T04:30:29.972Z,17.14
2023-04-02T04:31:32.807Z,17.11
2023-04-02T04:32:46.485Z,17.11
2023-04-02T04:33:59.302Z,17.12
2023-04-02T04:35:02.957Z,17.15
2023-04-02T04:36:15.757Z,17.11
2023-04-02T04:37:29.483Z,17.1
2023-04-02T04:38:32.311Z,17.1
2023-04-02T04:39:45.953Z,17.12
2023-04-02T04:40:58.709Z,17.1
2023-04-02T04:42:12.960Z,17.1
2023-04-02T04:43:15.778Z,17.11
2023-04-02T04:44:29.465Z,17.11
2023-04-02T04:45:42.283Z,17.08
2023-04-02T04:46:45.960Z,17.11
2023-04-02T04:47:58.733Z,17.11
2023-04-02T04:49:12.470Z,17.1
2023-04-02T04:50:15.278Z,17.1
2023-04-02T04:51:29.447Z,17.07
2023-04-02T04:52:42.216Z,17.07
2023-04-02T04:53:45.965Z,17.08
2023-04-02T04:54:58.737Z,17.1
2023-04-02T04:56:31.985Z,17.08
2023-04-02T04:57:14.942Z,17.08
2023-04-02T04:58:27.834Z,17.07
2023-04-02T04:59:41.498Z,17.11
2023-04-02T05:00:54.441Z,17.08
2023-04-02T05:01:58.015Z,17.1
2023-04-02T05:03:10.879Z,17.1
2023-04-02T05:04:24.494Z,17.11
2023-04-02T05:05:27.437Z,17.11
2023-04-02T05:06:40.983Z,17.11
2023-04-02T05:07:53.757Z,17.07
2023-04-02T05:08:57.487Z,17.1
2023-04-02T05:10:10.225Z,17.1
2023-04-02T05:11:23.962Z,17.08
2023-04-02T05:12:26.777Z,17.08
2023-04-02T05:13:40.490Z,17.07
2023-04-02T05:14:53.257Z,17.05
2023-04-02T05:16:07.015Z,17.05
2023-04-02T05:17:09.909Z,17.05
2023-04-02T05:18:23.489Z,17.11
2023-04-02T05:19:36.226Z,17.17
2023-04-02T05:20:39.988Z,17.29
2023-04-02T05:21:52.667Z,17.36
2023-04-02T05:23:06.007Z,17.48
2023-04-02T05:24:08.720Z,17.61
2023-04-02T05:25:22.482Z,17.72
2023-04-02T05:26:35.072Z,17.83
2023-04-02T05:27:38.497Z,17.92
2023-04-02T05:28:51.067Z,18.02
2023-04-02T05:30:04.690Z,18.1
2023-04-02T05:31:07.401Z,18.19
2023-04-02T05:32:20.983Z,18.24
2023-04-02T05:33:33.514Z,18.33
2023-04-02T05:34:47.063Z,18.4
2023-04-02T05:35:49.827Z,18.44
2023-04-02T05:37:05.738Z,18.5
2023-04-02T05:38:09.690Z,18.54
2023-04-02T05:39:22.998Z,18.57
2023-04-02T05:40:35.497Z,18.62
2023-04-02T05:41:38.964Z,18.66
2023-04-02T05:42:51.462Z,18.69
2023-04-02T05:44:05.275Z,18.73
2023-04-02T05:45:18.305Z,18.74
2023-04-02T05:46:21.565Z,18.78
2023-04-02T05:47:34.354Z,18.81
2023-04-02T05:48:48.485Z,18.84
2023-04-02T05:49:51.237Z,18.84
2023-04-02T05:51:04.507Z,18.85
2023-04-02T05:52:16.991Z,18.88
2023-04-02T05:53:20.465Z,18.88
2023-04-02T05:54:32.932Z,18.89
2023-04-02T05:55:45.993Z,18.92
2023-04-02T05:56:48.710Z,18.92
2023-04-02T05:58:29.638Z,18.92
